Startpagina
METAR-TAF:

METAR-TAF

Vliegvelden :

Internationale luchthaven Tan Son Nhat

Ho Chi Minhstad, Vietnam

breedte: 10-49N, lengte: 106-40E, hoogte: 19 m

Actueel weer

Dit bericht is 32 minuten geleden gemaakt, om 05:00 UTC
Wind 8 kt uit het noorden met uitschieters tot 21 kt, variërend tussen het noordwesten en het noordoosten
Temperatuur 31°C
Vochtigheid 71%
Druk 1009 hPa
Zicht 10 km of meer
Gebroken wolken op 1700 ft

METAR: VVTS 190500Z 01008G21KT 310V040 9999 BKN017 31/25 Q1009 NOSIG

Tijdstip: 12:32 (05:32 UTC)

Verwachting

Dit bericht is 6 uur en het 32 minuten geleden gemaakt, om 23:00 UTC
Verwachting geldig van 19 om 00 UTC tot 20 om 06 UTC
Wind 5 kt uit het zuidwesten
Zicht 10 km of meer
Weinig wolken op 1700 ft
Verspreide wolken op 4000 ft
Tijdelijke
van 19 om 06 UTC tot 19 om 11 UTC
Gebroken wolken op 1500 ft
Verspreide wolken op 1700 ft, Cumulonimbus.
Gebroken wolken op 4000 ft
onweer

TAF: VVTS 182300Z 1900/2006 22005KT 9999 FEW017 SCT040 TEMPO 1906/1911 TS BKN015 SCT017CB BKN040

Waarnemingen en weersverwachtingen van meer dan 4000 vliegvelden (METAR en TAF).

De beschikbare stations zijn de gele en rode punten op de kaart.

Ga met uw muis naar het station om de naam te zien.

Klik dan om waarnemingen en weersverwachtingen te zien.

kaart wijzigen: klik op de groene knoppen met een zwart kruis om in te zoomen, op de groene knop met een streepje om uit te zoomen of op de groene pijlen voor aangrenzende kaarten.


METAR-TAF: